METAR Data
IDs: Format: Raw Decoded Include TAF

Data at: 0223 UTC 19 Oct 2021

KFYV 190153Z 00000KT 10SM CLR 11/08 A3008 RMK AO2 SLP185 T01060083
KFYV 190053Z 00000KT 10SM CLR 12/08 A3007 RMK AO2 SLP184 T01170083
KFYV 182353Z 00000KT 10SM CLR 16/08 A3007 RMK AO2 SLP180 T01560083 10228 20156 55008
KFYV 182253Z 16007KT 10SM CLR 20/07 A3006 RMK AO2 SLP178 T02000072
KFYV 182153Z 17011KT 10SM CLR 22/06 A3007 RMK AO2 SLP179 T02170061
KFYV 182053Z 16010G16KT 10SM CLR 22/05 A3009 RMK AO2 SLP184 T02220050 56026
KFYV 181953Z 16007KT 120V190 10SM CLR 23/05 A3010 RMK AO2 SLP188 T02280050
KFYV 181853Z 20011KT 10SM CLR 23/06 A3014 RMK AO2 SLP200 T02280056
KFYV 181753Z 20010KT 10SM CLR 22/06 A3017 RMK AO2 SLP211 T02220056 10222 20039 58017
KFYV 181653Z 20007KT 10SM CLR 21/06 A3019 RMK AO2 SLP218 T02110061
KFYV 181553Z 17004KT 10SM CLR 19/08 A3021 RMK AO2 SLP224 T01940078
KFYV 181453Z 00000KT 10SM CLR 13/09 A3022 RMK AO2 SLP231 T01280089 51010
KFYV 181353Z 00000KT 10SM CLR 08/07 A3022 RMK AO2 SLP232 T00830067
KFYV 181253Z 00000KT 10SM CLR 04/04 A3020 RMK AO2 SLP226 T00440039
KFYV 181153Z 00000KT 10SM CLR 04/03 A3019 RMK AO2 SLP222 T00440033 10078 20039 53005
KFYV 181053Z 00000KT 10SM CLR 04/04 A3018 RMK AO2 SLP218 T00440039
KFYV 180953Z AUTO 00000KT 9SM CLR 05/04 A3018 RMK AO2 SLP214 T00500044
KFYV 180853Z AUTO 00000KT 10SM CLR 06/05 A3017 RMK AO2 SLP213 T00610050 58007
KFYV 180753Z AUTO 00000KT 10SM CLR 06/05 A3018 RMK AO2 SLP216 T00610050
KFYV 180653Z AUTO 00000KT 10SM CLR 07/06 A3019 RMK AO2 SLP219 T00670056
KFYV 180553Z AUTO 00000KT 10SM CLR 08/06 A3020 RMK AO2 SLP220 T00780061 10144 20072 402280028 58007
KFYV 180453Z AUTO 00000KT 10SM CLR 08/07 A3020 RMK AO2 SLP223 T00830067
KFYV 180353Z AUTO 00000KT 10SM CLR 09/07 A3021 RMK AO2 SLP227 T00890072
KFYV 180253Z AUTO 17003KT 10SM CLR 10/08 A3022 RMK AO2 SLP232 T01000078 51005
KFYV 180153Z 18003KT 10SM CLR 11/08 A3021 RMK AO2 SLP232 T01060083
KFYV 180053Z 16003KT 10SM CLR 12/08 A3021 RMK AO2 SLP232 T01220083
KFYV 172353Z 00000KT 10SM CLR 14/08 A3020 RMK AO2 SLP228 T01390078 10228 20139 56006
KFYV 172253Z 27004KT 10SM CLR 21/04 A3020 RMK AO2 SLP225 T02060039
KFYV 172153Z VRB03KT 10SM CLR 22/04 A3021 RMK AO2 SLP226 T02220039
KFYV 172053Z 26006KT 10SM CLR 23/03 A3022 RMK AO2 SLP230 T02280028 56022
KFYV 171953Z 10SM CLR 22/03 A3023 RMK AO2 SLP234 T02220028
KFYV 171853Z 28006KT 10SM CLR 22/03 A3026 RMK AO2 SLP243 T02220033
KFYV 171753Z VRB05KT 10SM CLR 22/03 A3029 RMK AO2 SLP253 T02170028 10217 20028 58016
KFYV 171653Z 26006KT 10SM CLR 21/04 A3031 RMK AO2 SLP261 T02060044
KFYV 171553Z 00000KT 10SM CLR 18/06 A3033 RMK AO2 SLP267 T01830061
KFYV 171453Z 00000KT 10SM CLR 11/07 A3034 RMK AO2 SLP274 T01110072 51005